Blue Moon Of Tuana — YMA2195 — position and weather

sailwx.info

Track history (hours):
 
Tides and Currents Weather Stations Pressure Air Temp Water Temp Dewpoint Dewpoint Depression Visibility Wind Speed Wind Dir Waves Ship Positions

Blue Moon Of Tuana

Last reported at 2017-Sep-21 07:00 UTC. Time now 2017-Sep-21 07:11 UTC.
Position N 36°51' E 030°46'.

Type: Passenger vessel. MMSI: 271020092.

Date/timePositionNaut miles runAvg speedWind from/ knotsBaromVisibWave heightAir tempDewpointWater temp
2017-Sep-21 07:00N 36°51' E 030°46'4 8.0
2017-Sep-21 06:30N 36°50' E 030°41'3 6.9
2017-Sep-21 06:00N 36°50' E 030°37'  
2017-Sep-14 12:57N 36°50' E 030°36'0 0.0
2017-Sep-14 12:30N 36°50' E 030°36'2 3.1
2017-Sep-14 12:00N 36°49' E 030°35'0 0.8
2017-Sep-14 11:28N 36°48' E 030°35'0 0.0
2017-Sep-14 10:52N 36°48' E 030°35'0 0.0
2017-Sep-14 10:28N 36°48' E 030°35'0 0.0
2017-Sep-14 09:58N 36°48' E 030°35'0 0.0
2017-Sep-14 09:30N 36°48' E 030°35'4 8.6
2017-Sep-14 09:00N 36°50' E 030°40'4 8.9
2017-Sep-14 08:30N 36°51' E 030°46'1 2.1
2017-Sep-14 07:59N 36°51' E 030°47'2 4.2
2017-Sep-14 07:30N 36°51' E 030°45'4 8.7
2017-Sep-14 07:00N 36°50' E 030°39'2 0.2
2017-Sep-13 17:27N 36°50' E 030°36'1 2.2
2017-Sep-13 17:00N 36°49' E 030°36'1 2.0
2017-Sep-13 16:28N 36°48' E 030°35'0 0.0
2017-Sep-13 15:55N 36°48' E 030°35'0 0.0
2017-Sep-13 15:28N 36°48' E 030°35'1 1.8
2017-Sep-13 15:00N 36°47' E 030°35'0 0.9
2017-Sep-13 14:30N 36°47' E 030°34'1 1.3
2017-Sep-13 13:55N 36°48' E 030°35'3 7.2
2017-Sep-13 13:30N 36°50' E 030°37'1 0.3
2017-Sep-13 11:28N 36°50' E 030°36'1 2.2
2017-Sep-13 11:00N 36°50' E 030°38'3 3.9
2017-Sep-13 10:21N 36°48' E 030°35'0 0.7
2017-Sep-13 09:58N 36°48' E 030°35'0 0.0
2017-Sep-13 09:28N 36°48' E 030°35'0 0.0
2017-Sep-13 08:58N 36°48' E 030°35'0 0.0
2017-Sep-13 08:28N 36°48' E 030°35'1 2.4
2017-Sep-13 07:58N 36°47' E 030°34'0 0.0
2017-Sep-13 07:25N 36°47' E 030°34'0 0.6
2017-Sep-13 07:00N 36°47' E 030°34'4 7.5
2017-Sep-13 06:30N 36°50' E 030°37'1 0.0
2017-Sep-12 16:54N 36°50' E 030°36'1 1.7
2017-Sep-12 16:30N 36°49' E 030°36'2 0.2
2017-Sep-12 07:05N 36°50' E 030°38'1 7.4
2017-Sep-12 07:00N 36°50' E 030°37'1 0.1
2017-Sep-11 16:54N 36°50' E 030°36'1 3.7
2017-Sep-11 16:30N 36°49' E 030°36'2 3.0
2017-Sep-11 15:55N 36°47' E 030°34'0 0.0
2017-Sep-11 15:16N 36°47' E 030°34'0 0.0
2017-Sep-11 14:58N 36°47' E 030°34'0 0.0
2017-Sep-11 14:28N 36°47' E 030°34'2 5.0
2017-Sep-11 14:00N 36°49' E 030°36'1 1.7
2017-Sep-11 13:23N 36°50' E 030°36'0 0.0
2017-Sep-11 12:59N 36°50' E 030°36'0 0.0
2017-Sep-11 12:29N 36°50' E 030°36'2 3.5
2017-Sep-11 12:00N 36°48' E 030°35'0 0.5
2017-Sep-11 11:29N 36°48' E 030°35'0 0.0
2017-Sep-11 10:59N 36°48' E 030°35'0 0.0
2017-Sep-11 10:29N 36°48' E 030°35'0 0.2
2017-Sep-11 10:00N 36°48' E 030°35'5 9.0
2017-Sep-11 09:31N 36°50' E 030°41'5 9.1
2017-Sep-11 09:01N 36°51' E 030°46'1 0.7
2017-Sep-11 08:19N 36°51' E 030°47'2 4.8
2017-Sep-11 08:00N 36°51' E 030°45'4 8.4
2017-Sep-11 07:30N 36°50' E 030°40'  
Track history (hours):
 
Tides and Currents Weather Stations Pressure Air Temp Water Temp Dewpoint Dewpoint Depression Visibility Wind Speed Wind Dir Waves Ship Positions

Blue Moon Of Tuana

Last reported at 2017-Sep-21 07:00 UTC. Time now 2017-Sep-21 07:11 UTC.
Position N 36°51' E 030°46'.

Type: Passenger vessel. MMSI: 271020092.

Date/timePositionNaut miles runAvg speedWind from/ knotsBaromVisibWave heightAir tempDewpointWater temp
2017-Sep-21 07:00N 36°51' E 030°46'4 8.0
2017-Sep-21 06:30N 36°50' E 030°41'3 6.9
2017-Sep-21 06:00N 36°50' E 030°37'  
2017-Sep-14 12:57N 36°50' E 030°36'0 0.0
2017-Sep-14 12:30N 36°50' E 030°36'2 3.1
2017-Sep-14 12:00N 36°49' E 030°35'0 0.8
2017-Sep-14 11:28N 36°48' E 030°35'0 0.0
2017-Sep-14 10:52N 36°48' E 030°35'0 0.0
2017-Sep-14 10:28N 36°48' E 030°35'0 0.0
2017-Sep-14 09:58N 36°48' E 030°35'0 0.0
2017-Sep-14 09:30N 36°48' E 030°35'4 8.6
2017-Sep-14 09:00N 36°50' E 030°40'4 8.9
2017-Sep-14 08:30N 36°51' E 030°46'1 2.1
2017-Sep-14 07:59N 36°51' E 030°47'2 4.2
2017-Sep-14 07:30N 36°51' E 030°45'4 8.7
2017-Sep-14 07:00N 36°50' E 030°39'2 0.2
2017-Sep-13 17:27N 36°50' E 030°36'1 2.2
2017-Sep-13 17:00N 36°49' E 030°36'1 2.0
2017-Sep-13 16:28N 36°48' E 030°35'0 0.0
2017-Sep-13 15:55N 36°48' E 030°35'0 0.0
2017-Sep-13 15:28N 36°48' E 030°35'1 1.8
2017-Sep-13 15:00N 36°47' E 030°35'0 0.9
2017-Sep-13 14:30N 36°47' E 030°34'1 1.3
2017-Sep-13 13:55N 36°48' E 030°35'3 7.2
2017-Sep-13 13:30N 36°50' E 030°37'1 0.3
2017-Sep-13 11:28N 36°50' E 030°36'1 2.2
2017-Sep-13 11:00N 36°50' E 030°38'3 3.9
2017-Sep-13 10:21N 36°48' E 030°35'0 0.7
2017-Sep-13 09:58N 36°48' E 030°35'0 0.0
2017-Sep-13 09:28N 36°48' E 030°35'0 0.0
2017-Sep-13 08:58N 36°48' E 030°35'0 0.0
2017-Sep-13 08:28N 36°48' E 030°35'1 2.4
2017-Sep-13 07:58N 36°47' E 030°34'0 0.0
2017-Sep-13 07:25N 36°47' E 030°34'0 0.6
2017-Sep-13 07:00N 36°47' E 030°34'4 7.5
2017-Sep-13 06:30N 36°50' E 030°37'1 0.0
2017-Sep-12 16:54N 36°50' E 030°36'1 1.7
2017-Sep-12 16:30N 36°49' E 030°36'2 0.2
2017-Sep-12 07:05N 36°50' E 030°38'1 7.4
2017-Sep-12 07:00N 36°50' E 030°37'1 0.1
2017-Sep-11 16:54N 36°50' E 030°36'1 3.7
2017-Sep-11 16:30N 36°49' E 030°36'2 3.0
2017-Sep-11 15:55N 36°47' E 030°34'0 0.0
2017-Sep-11 15:16N 36°47' E 030°34'0 0.0
2017-Sep-11 14:58N 36°47' E 030°34'0 0.0
2017-Sep-11 14:28N 36°47' E 030°34'2 5.0
2017-Sep-11 14:00N 36°49' E 030°36'1 1.7
2017-Sep-11 13:23N 36°50' E 030°36'0 0.0
2017-Sep-11 12:59N 36°50' E 030°36'0 0.0
2017-Sep-11 12:29N 36°50' E 030°36'2 3.5
2017-Sep-11 12:00N 36°48' E 030°35'0 0.5
2017-Sep-11 11:29N 36°48' E 030°35'0 0.0
2017-Sep-11 10:59N 36°48' E 030°35'0 0.0
2017-Sep-11 10:29N 36°48' E 030°35'0 0.2
2017-Sep-11 10:00N 36°48' E 030°35'5 9.0
2017-Sep-11 09:31N 36°50' E 030°41'5 9.1
2017-Sep-11 09:01N 36°51' E 030°46'1 0.7
2017-Sep-11 08:19N 36°51' E 030°47'2 4.8
2017-Sep-11 08:00N 36°51' E 030°45'4 8.4
2017-Sep-11 07:30N 36°50' E 030°40'  

Dump ship's entire track history